createdAt,value
2022-10-23T00:01:48.333Z,25.10
2022-10-23T00:04:22.545Z,25.20
2022-10-23T00:06:50.998Z,25.30
2022-10-23T00:09:22.042Z,25.30
2022-10-23T00:11:51.350Z,25.40
2022-10-23T00:14:23.314Z,25.30
2022-10-23T00:16:51.494Z,25.20
2022-10-23T00:19:19.678Z,25.10
2022-10-23T00:21:47.915Z,25.00
2022-10-23T00:24:16.081Z,25.00
2022-10-23T00:26:44.578Z,24.90
2022-10-23T00:29:12.777Z,24.90
2022-10-23T00:31:40.913Z,24.90
2022-10-23T00:34:09.604Z,24.80
2022-10-23T00:36:38.244Z,24.40
2022-10-23T00:39:07.280Z,24.50
2022-10-23T00:41:35.667Z,24.80
2022-10-23T00:44:18.971Z,24.50
2022-10-23T00:46:47.272Z,24.50
2022-10-23T00:49:16.563Z,24.30
2022-10-23T00:51:57.850Z,24.30
2022-10-23T00:54:30.225Z,24.30
2022-10-23T00:56:59.607Z,24.50
2022-10-23T00:59:28.652Z,24.70
2022-10-23T01:01:57.310Z,24.80
2022-10-23T01:04:28.416Z,24.90
2022-10-23T01:07:13.096Z,24.80
2022-10-23T01:09:59.988Z,24.70
2022-10-23T01:12:56.239Z,24.70
2022-10-23T01:15:54.234Z,24.80
2022-10-23T01:18:29.871Z,24.80
2022-10-23T01:21:27.255Z,24.60
2022-10-23T01:24:05.286Z,24.50
2022-10-23T01:26:53.536Z,24.50
2022-10-23T01:29:35.121Z,24.50
2022-10-23T01:32:31.036Z,24.40
2022-10-23T01:35:17.496Z,24.40
2022-10-23T01:38:21.731Z,24.40
2022-10-23T01:40:58.593Z,24.30
2022-10-23T01:43:32.639Z,24.10
2022-10-23T01:46:04.866Z,24.10
2022-10-23T01:48:38.273Z,24.00
2022-10-23T01:51:10.449Z,24.00
2022-10-23T01:53:42.376Z,24.00
2022-10-23T01:56:18.533Z,23.90
2022-10-23T01:58:49.945Z,24.10
2022-10-23T02:01:22.605Z,24.20
2022-10-23T02:03:54.322Z,24.10
2022-10-23T02:06:22.762Z,24.00
2022-10-23T02:08:51.295Z,24.10
2022-10-23T02:11:22.113Z,24.20
2022-10-23T02:14:04.442Z,24.00
2022-10-23T02:16:40.188Z,23.70
2022-10-23T02:19:20.264Z,23.70
2022-10-23T02:22:24.432Z,23.60
2022-10-23T02:25:20.451Z,23.50
2022-10-23T02:27:55.374Z,23.50
2022-10-23T02:30:28.685Z,23.50
2022-10-23T02:33:09.864Z,23.60
2022-10-23T02:35:38.240Z,23.80
2022-10-23T02:38:41.404Z,23.80
2022-10-23T02:41:16.671Z,23.90
2022-10-23T02:44:13.324Z,23.80
2022-10-23T02:47:09.705Z,23.70
2022-10-23T02:49:40.978Z,23.60
2022-10-23T02:52:21.143Z,23.50
2022-10-23T02:55:41.947Z,23.60
2022-10-23T02:58:16.905Z,23.60
2022-10-23T03:00:51.586Z,23.40
2022-10-23T03:03:33.162Z,23.40
2022-10-23T03:06:01.464Z,23.70
2022-10-23T03:08:29.503Z,24.00
2022-10-23T03:10:57.850Z,24.10
2022-10-23T03:13:29.185Z,23.90
2022-10-23T03:15:57.411Z,23.80
2022-10-23T03:18:27.760Z,23.80
2022-10-23T03:20:59.907Z,23.70
2022-10-23T03:23:28.139Z,23.80
2022-10-23T03:25:56.522Z,23.80
2022-10-23T03:28:41.488Z,23.80
2022-10-23T03:31:09.903Z,23.60
2022-10-23T03:33:40.136Z,23.80
2022-10-23T03:36:11.569Z,23.90
2022-10-23T03:38:41.241Z,23.60
2022-10-23T03:41:11.682Z,23.70
2022-10-23T03:43:39.824Z,23.60
2022-10-23T03:46:07.971Z,23.80
2022-10-23T03:48:36.725Z,23.60
2022-10-23T03:51:06.627Z,23.50
2022-10-23T03:53:35.434Z,23.60
2022-10-23T03:56:05.342Z,23.60
2022-10-23T03:58:35.122Z,23.60
2022-10-23T04:01:03.441Z,23.60
2022-10-23T04:03:31.683Z,23.60
2022-10-23T04:05:59.739Z,23.60
2022-10-23T04:08:28.148Z,23.80
2022-10-23T04:10:56.804Z,23.90
2022-10-23T04:13:33.741Z,24.00
2022-10-23T04:16:02.125Z,24.00
2022-10-23T04:18:30.185Z,23.80
2022-10-23T04:20:58.464Z,23.70
2022-10-23T04:23:26.633Z,23.70
2022-10-23T04:25:58.968Z,23.80
2022-10-23T04:28:28.377Z,23.70
2022-10-23T04:30:56.794Z,23.70
2022-10-23T04:33:25.504Z,23.60
2022-10-23T04:35:53.692Z,23.60
2022-10-23T04:38:21.926Z,23.70
2022-10-23T04:40:51.173Z,23.60
2022-10-23T04:43:23.452Z,23.70
2022-10-23T04:45:51.724Z,23.80
2022-10-23T04:48:23.371Z,24.00
2022-10-23T04:51:26.228Z,23.90
2022-10-23T04:53:59.349Z,23.80
2022-10-23T04:56:47.744Z,23.70
2022-10-23T04:59:19.360Z,23.70
2022-10-23T05:01:48.344Z,23.70
2022-10-23T05:04:17.171Z,23.70
2022-10-23T05:07:03.519Z,23.80
2022-10-23T05:09:42.718Z,23.70
2022-10-23T05:12:36.711Z,23.60
2022-10-23T05:15:05.563Z,23.60
2022-10-23T05:17:38.927Z,23.70
2022-10-23T05:20:12.592Z,24.00
2022-10-23T05:22:43.199Z,24.10
2022-10-23T05:25:13.942Z,24.30
2022-10-23T05:27:49.283Z,24.30
2022-10-23T05:30:18.100Z,24.10
2022-10-23T05:32:46.594Z,24.00
2022-10-23T05:35:22.637Z,24.00
2022-10-23T05:37:54.253Z,23.90
2022-10-23T05:40:25.677Z,24.00
2022-10-23T05:43:02.075Z,23.90
2022-10-23T05:45:46.191Z,23.90
2022-10-23T05:48:35.023Z,23.70
2022-10-23T05:51:11.675Z,23.70
2022-10-23T05:53:51.153Z,23.90
2022-10-23T05:56:33.356Z,24.10
2022-10-23T05:59:11.144Z,24.10
2022-10-23T06:02:05.193Z,24.10
2022-10-23T06:04:48.004Z,24.00
2022-10-23T06:07:35.744Z,23.90
2022-10-23T06:10:07.460Z,23.70
2022-10-23T06:12:40.577Z,23.70
2022-10-23T06:15:13.074Z,23.70
2022-10-23T06:18:03.120Z,23.60
2022-10-23T06:20:39.182Z,23.60
2022-10-23T06:23:12.911Z,23.70
2022-10-23T06:26:01.428Z,23.80
2022-10-23T06:28:40.273Z,24.00
2022-10-23T06:31:15.771Z,24.10
2022-10-23T06:33:44.021Z,24.10
2022-10-23T06:36:13.466Z,24.00
2022-10-23T06:38:43.315Z,23.90
2022-10-23T06:41:20.404Z,23.70
2022-10-23T06:43:54.339Z,23.90
2022-10-23T06:46:28.910Z,23.90
2022-10-23T06:49:28.753Z,23.90
2022-10-23T06:51:59.532Z,23.90
2022-10-23T06:54:27.882Z,23.90
2022-10-23T06:57:21.255Z,23.90
2022-10-23T06:59:50.645Z,24.20
2022-10-23T07:02:19.467Z,24.40
2022-10-23T07:04:47.770Z,24.40
2022-10-23T07:07:20.314Z,24.40
2022-10-23T07:09:50.333Z,24.30
2022-10-23T07:12:24.267Z,24.30
2022-10-23T07:15:06.197Z,24.10
2022-10-23T07:17:34.633Z,24.10
2022-10-23T07:20:04.202Z,23.90
2022-10-23T07:22:32.482Z,24.00
2022-10-23T07:25:10.716Z,24.00
2022-10-23T07:27:40.110Z,24.00
2022-10-23T07:30:11.121Z,24.10
2022-10-23T07:32:48.130Z,24.10
2022-10-23T07:35:37.183Z,24.30
2022-10-23T07:38:11.567Z,24.30
2022-10-23T07:40:42.846Z,24.40
2022-10-23T07:43:12.359Z,24.10
2022-10-23T07:45:40.491Z,24.10
2022-10-23T07:48:17.522Z,24.10
2022-10-23T07:51:11.564Z,24.00
2022-10-23T07:53:46.105Z,24.10
2022-10-23T07:56:43.526Z,24.10
2022-10-23T07:59:38.138Z,24.10
2022-10-23T08:02:15.064Z,24.10
2022-10-23T08:04:44.451Z,24.20
2022-10-23T08:07:25.106Z,24.40
2022-10-23T08:09:56.644Z,24.60
2022-10-23T08:12:26.213Z,24.70
2022-10-23T08:14:55.743Z,24.90
2022-10-23T08:17:28.208Z,24.70
2022-10-23T08:20:06.846Z,24.70
2022-10-23T08:22:40.971Z,24.70
2022-10-23T08:25:10.339Z,24.80
2022-10-23T08:27:39.646Z,25.00
2022-10-23T08:30:08.167Z,25.10
2022-10-23T08:32:36.770Z,25.20
2022-10-23T08:35:05.145Z,25.30
2022-10-23T08:37:34.504Z,25.50
2022-10-23T08:40:02.972Z,26.00
2022-10-23T08:43:06.270Z,26.50
2022-10-23T08:45:49.253Z,26.80
2022-10-23T08:48:44.845Z,26.80
2022-10-23T08:51:38.449Z,26.70
2022-10-23T08:54:17.336Z,26.80
2022-10-23T08:57:10.795Z,26.60
2022-10-23T08:59:49.276Z,26.40
2022-10-23T09:02:28.402Z,26.40
2022-10-23T09:04:59.311Z,26.50
2022-10-23T09:08:01.415Z,26.50
2022-10-23T09:10:51.530Z,26.40
2022-10-23T09:13:44.539Z,26.50
2022-10-23T09:16:53.989Z,26.80
2022-10-23T09:19:25.253Z,27.10
2022-10-23T09:21:55.051Z,27.40
2022-10-23T09:24:25.095Z,27.40
2022-10-23T09:26:55.038Z,27.60
2022-10-23T09:29:30.392Z,27.60
2022-10-23T09:32:00.782Z,28.00
2022-10-23T09:34:31.825Z,28.10
2022-10-23T09:37:03.079Z,28.50
2022-10-23T09:39:34.423Z,28.60
2022-10-23T09:42:25.372Z,28.60
2022-10-23T09:44:55.664Z,29.00
2022-10-23T09:47:26.259Z,29.30
2022-10-23T09:49:56.518Z,29.60
2022-10-23T09:52:26.194Z,29.70
2022-10-23T09:55:15.491Z,29.70
2022-10-23T09:57:45.898Z,29.80
2022-10-23T10:00:15.083Z,30.20
2022-10-23T10:02:55.413Z,30.20
2022-10-23T10:05:38.057Z,30.00
2022-10-23T10:08:25.237Z,29.60
2022-10-23T10:10:53.340Z,29.90
2022-10-23T10:13:36.357Z,30.10
2022-10-23T10:16:14.685Z,30.40
2022-10-23T10:18:57.223Z,30.30
2022-10-23T10:21:28.391Z,30.10
2022-10-23T10:24:08.801Z,29.50
2022-10-23T10:26:58.397Z,29.50
2022-10-23T10:29:44.844Z,30.10
2022-10-23T10:32:31.606Z,30.60
2022-10-23T10:35:17.060Z,30.10
2022-10-23T10:37:58.795Z,29.80
2022-10-23T10:40:37.503Z,30.50
2022-10-23T10:43:42.325Z,31.00
2022-10-23T10:46:24.546Z,30.50
2022-10-23T10:49:00.291Z,31.20
2022-10-23T10:51:35.075Z,31.30
2022-10-23T10:54:26.369Z,30.70
2022-10-23T10:56:54.822Z,31.10
2022-10-23T10:59:28.855Z,31.20
2022-10-23T11:02:24.273Z,31.10
2022-10-23T11:05:19.523Z,31.40
2022-10-23T11:08:15.360Z,30.50
2022-10-23T11:10:47.197Z,30.40
2022-10-23T11:13:35.068Z,30.50
2022-10-23T11:16:10.255Z,30.50
2022-10-23T11:18:41.243Z,30.10
2022-10-23T11:21:34.411Z,30.20
2022-10-23T11:24:11.976Z,30.60
2022-10-23T11:26:58.596Z,30.30
2022-10-23T11:29:29.832Z,30.90
2022-10-23T11:32:03.992Z,31.10
2022-10-23T11:35:25.789Z,31.20
2022-10-23T11:38:27.444Z,31.30
2022-10-23T11:41:05.121Z,30.20
2022-10-23T11:43:48.266Z,30.60
2022-10-23T11:46:37.082Z,30.90
2022-10-23T11:49:19.777Z,31.10
2022-10-23T11:51:48.038Z,30.90
2022-10-23T11:54:16.109Z,30.90
2022-10-23T11:57:10.597Z,30.70
2022-10-23T11:59:50.924Z,30.90
2022-10-23T12:02:42.977Z,30.50
2022-10-23T12:05:37.030Z,30.10
2022-10-23T12:08:28.270Z,30.20
2022-10-23T12:10:56.818Z,30.20
2022-10-23T12:13:46.999Z,30.30
2022-10-23T12:16:15.340Z,30.30
2022-10-23T12:18:52.090Z,30.80
2022-10-23T12:21:26.060Z,30.60
2022-10-23T12:24:25.230Z,29.70
2022-10-23T12:27:05.338Z,30.00
2022-10-23T12:30:04.111Z,30.90
2022-10-23T12:33:00.063Z,31.10
2022-10-23T12:36:07.076Z,31.00
2022-10-23T12:38:44.247Z,31.30
2022-10-23T12:41:17.156Z,30.60
2022-10-23T12:43:55.033Z,31.00
2022-10-23T12:46:41.176Z,31.20
2022-10-23T12:49:18.918Z,30.90
2022-10-23T12:51:55.108Z,31.00
2022-10-23T12:54:23.552Z,30.80
2022-10-23T12:56:51.972Z,30.90
2022-10-23T12:59:32.527Z,30.50
2022-10-23T13:02:00.920Z,30.20
2022-10-23T13:04:35.419Z,30.60
2022-10-23T13:07:04.742Z,30.80
2022-10-23T13:09:41.649Z,31.20
2022-10-23T13:12:31.646Z,31.60
2022-10-23T13:15:14.449Z,32.00
2022-10-23T13:17:48.494Z,31.60
2022-10-23T13:20:24.825Z,31.60
2022-10-23T13:23:16.191Z,31.80
2022-10-23T13:25:53.542Z,32.00
2022-10-23T13:28:29.394Z,31.80
2022-10-23T13:31:23.960Z,31.50
2022-10-23T13:34:06.304Z,31.30
2022-10-23T13:36:38.158Z,31.70
2022-10-23T13:39:14.928Z,31.40
2022-10-23T13:41:47.407Z,31.30
2022-10-23T13:44:20.513Z,31.40
2022-10-23T13:46:48.911Z,31.30
2022-10-23T13:49:17.107Z,31.10
2022-10-23T13:51:52.658Z,31.30
2022-10-23T13:56:59.503Z,31.40
2022-10-23T13:59:27.706Z,31.50
2022-10-23T14:01:56.018Z,31.30
2022-10-23T14:04:24.299Z,31.20
2022-10-23T14:06:52.612Z,31.00
2022-10-23T14:09:20.668Z,31.20
2022-10-23T14:11:48.967Z,31.30
2022-10-23T14:14:17.118Z,31.20
2022-10-23T14:16:45.282Z,30.90
2022-10-23T14:19:13.345Z,31.00
2022-10-23T14:21:41.620Z,30.90
2022-10-23T14:24:09.772Z,31.20
2022-10-23T14:26:37.886Z,31.50
2022-10-23T14:29:09.828Z,31.60
2022-10-23T14:31:42.169Z,31.80
2022-10-23T14:34:10.334Z,31.70
2022-10-23T14:36:49.632Z,31.40
2022-10-23T14:39:24.896Z,30.90
2022-10-23T14:41:53.136Z,30.30
2022-10-23T14:44:21.229Z,30.40
2022-10-23T14:46:49.378Z,30.70
2022-10-23T14:49:17.518Z,31.00
2022-10-23T14:51:45.727Z,31.10
2022-10-23T14:54:13.930Z,31.40
2022-10-23T14:56:42.256Z,31.10
2022-10-23T14:59:10.535Z,31.00
2022-10-23T15:01:45.532Z,30.90
2022-10-23T15:04:16.609Z,30.90
2022-10-23T15:06:45.571Z,30.90
2022-10-23T15:09:14.698Z,31.00
2022-10-23T15:11:42.937Z,31.10
2022-10-23T15:14:11.255Z,31.10
2022-10-23T15:16:40.843Z,30.70
2022-10-23T15:19:17.382Z,30.60
2022-10-23T15:21:48.439Z,30.60
2022-10-23T15:24:18.277Z,30.70
2022-10-23T15:26:46.767Z,30.90
2022-10-23T15:29:16.038Z,31.00
2022-10-23T15:31:54.978Z,30.80
2022-10-23T15:34:26.070Z,30.70
2022-10-23T15:36:56.607Z,30.70
2022-10-23T15:39:28.325Z,30.60
2022-10-23T15:41:57.368Z,30.50
2022-10-23T15:44:28.465Z,30.40
2022-10-23T15:46:57.605Z,30.30
2022-10-23T15:49:28.834Z,30.40
2022-10-23T15:51:57.463Z,30.30
2022-10-23T15:54:28.146Z,30.20
2022-10-23T15:56:58.889Z,30.20
2022-10-23T15:59:27.144Z,30.10
2022-10-23T16:01:55.660Z,30.20
2022-10-23T16:04:25.125Z,30.20
2022-10-23T16:06:53.282Z,30.10
2022-10-23T16:09:21.442Z,30.20
2022-10-23T16:11:49.748Z,30.10
2022-10-23T16:14:18.217Z,30.10
2022-10-23T16:16:46.423Z,30.20
2022-10-23T16:19:14.955Z,30.10
2022-10-23T16:21:43.458Z,29.90
2022-10-23T16:24:11.924Z,29.80
2022-10-23T16:26:40.657Z,29.60
2022-10-23T16:29:09.938Z,29.70
2022-10-23T16:31:38.349Z,29.70
2022-10-23T16:34:07.050Z,29.70
2022-10-23T16:36:35.660Z,29.40
2022-10-23T16:39:26.649Z,29.30
2022-10-23T16:42:13.029Z,29.40
2022-10-23T16:45:05.468Z,29.70
2022-10-23T16:47:34.221Z,29.80
2022-10-23T16:50:02.258Z,29.70
2022-10-23T16:52:30.549Z,29.80
2022-10-23T16:54:58.814Z,29.90
2022-10-23T16:57:27.203Z,30.00
2022-10-23T16:59:56.125Z,30.10
2022-10-23T17:02:24.511Z,29.90
2022-10-23T17:04:52.698Z,29.50
2022-10-23T17:09:54.100Z,29.80
2022-10-23T17:12:22.261Z,29.60
2022-10-23T17:14:50.424Z,29.60
2022-10-23T17:17:18.576Z,29.60
2022-10-23T17:19:47.068Z,29.60
2022-10-23T17:22:15.859Z,29.60
2022-10-23T17:24:48.776Z,29.60
2022-10-23T17:27:20.453Z,29.50
2022-10-23T17:29:50.921Z,29.40
2022-10-23T17:32:19.095Z,29.20
2022-10-23T17:34:47.173Z,29.20
2022-10-23T17:37:15.507Z,29.30
2022-10-23T17:39:44.070Z,29.30
2022-10-23T17:42:12.361Z,29.10
2022-10-23T17:44:40.657Z,28.70
2022-10-23T17:47:08.840Z,29.00
2022-10-23T17:49:36.986Z,29.20
2022-10-23T17:52:05.435Z,29.20
2022-10-23T17:54:33.691Z,29.10
2022-10-23T17:57:01.967Z,28.90
2022-10-23T17:59:30.578Z,28.80
2022-10-23T18:01:59.028Z,28.50
2022-10-23T18:04:27.356Z,28.30
2022-10-23T18:06:55.726Z,28.40
2022-10-23T18:09:24.495Z,28.50
2022-10-23T18:11:52.915Z,28.30
2022-10-23T18:14:27.252Z,28.10
2022-10-23T18:16:57.896Z,28.00
2022-10-23T18:19:26.612Z,27.90
2022-10-23T18:21:54.764Z,28.10
2022-10-23T18:24:23.491Z,28.20
2022-10-23T18:26:51.743Z,28.20
2022-10-23T18:29:20.515Z,28.20
2022-10-23T18:31:48.957Z,28.20
2022-10-23T18:34:23.283Z,28.20
2022-10-23T18:36:53.528Z,28.00
2022-10-23T18:39:24.726Z,27.90
2022-10-23T18:41:55.459Z,27.70
2022-10-23T18:44:24.847Z,27.70
2022-10-23T18:46:53.387Z,27.70
2022-10-23T18:49:21.754Z,28.00
2022-10-23T18:51:51.345Z,28.00
2022-10-23T18:54:21.599Z,27.90
2022-10-23T18:56:50.312Z,27.70
2022-10-23T18:59:20.512Z,27.50
2022-10-23T19:01:50.052Z,27.50
2022-10-23T19:04:18.552Z,27.80
2022-10-23T19:06:49.636Z,28.00
2022-10-23T19:09:18.463Z,28.30
2022-10-23T19:11:46.918Z,28.20
2022-10-23T19:14:15.422Z,28.10
2022-10-23T19:17:02.220Z,28.10
2022-10-23T19:19:38.024Z,28.00
2022-10-23T19:22:06.349Z,28.00
2022-10-23T19:24:58.330Z,27.80
2022-10-23T19:27:27.838Z,27.60
2022-10-23T19:29:57.019Z,27.50
2022-10-23T19:32:25.148Z,27.50
2022-10-23T19:34:53.369Z,27.80
2022-10-23T19:37:21.764Z,28.00
2022-10-23T19:39:49.867Z,27.80
2022-10-23T19:42:18.033Z,27.60
2022-10-23T19:44:46.345Z,27.40
2022-10-23T19:47:14.663Z,27.60
2022-10-23T19:49:42.981Z,27.80
2022-10-23T19:52:11.038Z,27.90
2022-10-23T19:54:39.465Z,28.00
2022-10-23T19:57:07.673Z,28.20
2022-10-23T19:59:35.975Z,28.20
2022-10-23T20:02:04.461Z,28.00
2022-10-23T20:04:33.287Z,27.80
2022-10-23T20:07:01.840Z,27.60
2022-10-23T20:09:31.161Z,27.50
2022-10-23T20:11:59.337Z,27.40
2022-10-23T20:14:28.110Z,27.60
2022-10-23T20:16:56.505Z,27.80
2022-10-23T20:19:24.581Z,27.70
2022-10-23T20:21:52.849Z,27.50
2022-10-23T20:24:22.339Z,27.40
2022-10-23T20:26:53.750Z,27.30
2022-10-23T20:29:23.228Z,27.50
2022-10-23T20:31:52.128Z,27.80
2022-10-23T20:34:20.560Z,27.90
2022-10-23T20:36:50.272Z,27.90
2022-10-23T20:39:22.236Z,27.90
2022-10-23T20:41:50.610Z,27.90
2022-10-23T20:44:19.461Z,27.80
2022-10-23T20:46:48.339Z,27.60
2022-10-23T20:49:17.758Z,27.40
2022-10-23T20:51:46.296Z,27.30
2022-10-23T20:54:14.605Z,27.30
2022-10-23T20:56:43.309Z,27.60
2022-10-23T20:59:14.063Z,27.80
2022-10-23T21:01:45.231Z,27.60
2022-10-23T21:04:14.693Z,27.30
2022-10-23T21:06:57.694Z,27.30
2022-10-23T21:09:31.839Z,27.20
2022-10-23T21:11:59.955Z,27.60
2022-10-23T21:14:28.295Z,27.80
2022-10-23T21:16:56.711Z,27.90
2022-10-23T21:19:27.591Z,28.00
2022-10-23T21:21:56.067Z,27.90
2022-10-23T21:24:24.252Z,27.90
2022-10-23T21:26:52.446Z,27.70
2022-10-23T21:29:20.917Z,27.40
2022-10-23T21:32:07.198Z,27.30
2022-10-23T21:34:35.570Z,27.20
2022-10-23T21:37:19.122Z,27.10
2022-10-23T21:39:47.417Z,27.00
2022-10-23T21:42:15.753Z,27.30
2022-10-23T21:44:44.094Z,27.60
2022-10-23T21:47:12.298Z,27.70
2022-10-23T21:49:40.575Z,27.40
2022-10-23T21:52:08.956Z,27.20
2022-10-23T21:54:37.213Z,27.10
2022-10-23T21:57:05.557Z,27.20
2022-10-23T21:59:35.887Z,27.50
2022-10-23T22:02:05.348Z,27.70
2022-10-23T22:04:35.023Z,27.80
2022-10-23T22:07:03.387Z,27.80
2022-10-23T22:09:33.144Z,27.80
2022-10-23T22:12:02.043Z,27.80
2022-10-23T22:14:30.131Z,27.80
2022-10-23T22:16:59.247Z,27.70
2022-10-23T22:19:27.502Z,27.50
2022-10-23T22:21:55.682Z,27.30
2022-10-23T22:24:24.289Z,27.30
2022-10-23T22:26:55.114Z,27.20
2022-10-23T22:29:27.501Z,27.50
2022-10-23T22:31:56.447Z,27.70
2022-10-23T22:37:18.718Z,27.40
2022-10-23T22:39:46.925Z,27.30
2022-10-23T22:42:15.229Z,27.20
2022-10-23T22:44:43.684Z,27.50
2022-10-23T22:47:12.122Z,27.60
2022-10-23T22:49:40.354Z,27.60
2022-10-23T22:52:08.487Z,27.70
2022-10-23T22:54:36.835Z,27.70
2022-10-23T22:57:05.192Z,27.80
2022-10-23T22:59:33.684Z,27.80
2022-10-23T23:02:02.026Z,27.80
2022-10-23T23:04:37.713Z,27.60
2022-10-23T23:07:11.446Z,27.40
2022-10-23T23:09:44.159Z,27.20
2022-10-23T23:12:14.333Z,27.20
2022-10-23T23:14:43.756Z,27.10
2022-10-23T23:17:12.832Z,27.10
2022-10-23T23:19:41.015Z,27.40
2022-10-23T23:22:09.402Z,27.60
2022-10-23T23:24:37.618Z,27.40
2022-10-23T23:27:05.983Z,27.20
2022-10-23T23:29:34.287Z,27.10
2022-10-23T23:32:02.385Z,27.10
2022-10-23T23:34:30.734Z,27.10
2022-10-23T23:36:59.279Z,27.10
2022-10-23T23:39:27.416Z,27.10
2022-10-23T23:41:55.687Z,27.20
2022-10-23T23:44:23.984Z,27.40
2022-10-23T23:46:52.050Z,27.50
2022-10-23T23:49:20.459Z,27.60
2022-10-23T23:51:48.730Z,27.60
2022-10-23T23:54:17.192Z,27.60
2022-10-23T23:56:45.663Z,27.40
2022-10-23T23:59:13.979Z,27.20
